createdAt,value
2022-09-25T00:00:40.051Z,10.84
2022-09-25T00:03:41.374Z,10.86
2022-09-25T00:06:42.696Z,10.87
2022-09-25T00:09:44.007Z,10.81
2022-09-25T00:12:45.333Z,10.76
2022-09-25T00:15:47.387Z,10.72
2022-09-25T00:19:07.528Z,10.63
2022-09-25T00:22:08.899Z,10.65
2022-09-25T00:25:11.050Z,10.62
2022-09-25T00:28:18.215Z,10.61
2022-09-25T00:31:21.222Z,10.60
2022-09-25T00:34:22.644Z,10.58
2022-09-25T00:37:24.043Z,10.59
2022-09-25T00:40:25.439Z,10.61
2022-09-25T00:43:34.655Z,10.63
2022-09-25T00:46:40.467Z,10.63
2022-09-25T00:49:41.833Z,10.61
2022-09-25T00:52:43.408Z,10.55
2022-09-25T00:55:44.737Z,10.55
2022-09-25T00:58:46.084Z,10.51
2022-09-25T01:01:47.514Z,10.51
2022-09-25T01:04:48.904Z,10.46
2022-09-25T01:07:50.421Z,10.47
2022-09-25T01:10:51.857Z,10.51
2022-09-25T01:13:54.023Z,10.51
2022-09-25T01:17:13.675Z,10.51
2022-09-25T01:20:18.053Z,10.50
2022-09-25T01:23:38.220Z,10.53
2022-09-25T01:26:39.519Z,10.56
2022-09-25T01:29:53.941Z,10.57
2022-09-25T01:33:13.651Z,10.58
2022-09-25T01:36:16.353Z,10.58
2022-09-25T01:39:37.202Z,10.63
2022-09-25T01:43:01.855Z,10.63
2022-09-25T01:46:04.842Z,10.59
2022-09-25T01:49:07.167Z,10.57
2022-09-25T01:52:10.371Z,10.59
2022-09-25T01:55:19.231Z,10.58
2022-09-25T01:58:39.501Z,10.60
2022-09-25T02:01:41.117Z,10.63
2022-09-25T02:05:08.741Z,10.64
2022-09-25T02:08:20.893Z,10.68
2022-09-25T02:11:22.242Z,10.66
2022-09-25T02:14:26.363Z,10.65
2022-09-25T02:18:00.470Z,10.62
2022-09-25T02:21:13.770Z,10.56
2022-09-25T02:24:33.884Z,10.55
2022-09-25T02:27:35.367Z,10.55
2022-09-25T02:30:36.761Z,10.54
2022-09-25T02:33:38.329Z,10.51
2022-09-25T02:36:39.725Z,10.47
2022-09-25T02:39:41.282Z,10.43
2022-09-25T02:43:11.961Z,10.41
2022-09-25T02:46:14.866Z,10.42
2022-09-25T02:49:42.657Z,10.43
2022-09-25T02:52:49.898Z,10.42
2022-09-25T02:56:03.046Z,10.38
2022-09-25T02:59:08.853Z,10.25
2022-09-25T03:02:11.720Z,10.23
2022-09-25T03:05:13.249Z,10.17
2022-09-25T03:08:33.357Z,10.13
2022-09-25T03:11:35.949Z,10.04
2022-09-25T03:14:37.408Z,10.00
2022-09-25T03:17:39.651Z,9.97
2022-09-25T03:20:41.000Z,9.98
2022-09-25T03:23:42.295Z,9.98
2022-09-25T03:26:43.633Z,9.97
2022-09-25T03:29:45.011Z,10.00
2022-09-25T03:32:46.386Z,9.98
2022-09-25T03:35:47.741Z,9.95
2022-09-25T03:38:50.531Z,9.92
2022-09-25T03:41:51.903Z,9.94
2022-09-25T03:44:53.219Z,9.99
2022-09-25T03:47:54.534Z,9.98
2022-09-25T03:50:56.247Z,10.01
2022-09-25T03:53:57.544Z,10.06
2022-09-25T03:56:58.897Z,10.08
2022-09-25T04:00:02.117Z,10.10
2022-09-25T04:03:03.450Z,10.09
2022-09-25T04:06:05.022Z,10.12
2022-09-25T04:09:06.323Z,10.00
2022-09-25T04:12:08.866Z,10.02
2022-09-25T04:15:10.256Z,9.97
2022-09-25T04:18:11.573Z,9.96
2022-09-25T04:21:13.356Z,10.01
2022-09-25T04:24:33.324Z,10.07
2022-09-25T04:27:34.640Z,10.09
2022-09-25T04:30:35.963Z,10.12
2022-09-25T04:33:46.482Z,10.13
2022-09-25T04:36:47.913Z,10.09
2022-09-25T04:39:49.262Z,10.15
2022-09-25T04:42:54.811Z,10.17
2022-09-25T04:45:56.275Z,10.21
2022-09-25T04:48:57.621Z,10.22
2022-09-25T04:51:59.015Z,10.24
2022-09-25T04:55:01.119Z,10.24
2022-09-25T04:58:02.483Z,10.20
2022-09-25T05:01:09.014Z,10.21
2022-09-25T05:04:10.482Z,10.19
2022-09-25T05:07:11.965Z,10.16
2022-09-25T05:10:14.717Z,10.11
2022-09-25T05:13:16.034Z,10.09
2022-09-25T05:16:17.487Z,10.10
2022-09-25T05:19:18.833Z,10.11
2022-09-25T05:22:20.165Z,10.12
2022-09-25T05:25:23.244Z,10.14
2022-09-25T05:28:24.792Z,10.16
2022-09-25T05:31:26.273Z,10.18
2022-09-25T05:34:27.899Z,10.19
2022-09-25T05:37:29.390Z,10.17
2022-09-25T05:40:30.851Z,10.20
2022-09-25T05:43:32.380Z,10.21
2022-09-25T05:46:34.002Z,10.23
2022-09-25T05:49:35.512Z,10.22
2022-09-25T05:52:36.823Z,10.26
2022-09-25T05:55:38.162Z,10.27
2022-09-25T05:58:39.497Z,10.22
2022-09-25T06:01:41.274Z,10.19
2022-09-25T06:04:42.725Z,10.18
2022-09-25T06:07:44.077Z,10.17
2022-09-25T06:10:50.962Z,10.22
2022-09-25T06:13:54.725Z,10.26
2022-09-25T06:16:59.506Z,10.26
2022-09-25T06:20:00.869Z,10.28
2022-09-25T06:23:02.231Z,10.24
2022-09-25T06:26:04.043Z,10.29
2022-09-25T06:29:07.665Z,10.35
2022-09-25T06:32:09.002Z,10.36
2022-09-25T06:35:10.375Z,10.35
2022-09-25T06:38:11.711Z,10.35
2022-09-25T06:41:13.225Z,10.36
2022-09-25T06:44:14.552Z,10.26
2022-09-25T06:47:18.763Z,10.25
2022-09-25T06:50:20.933Z,10.28
2022-09-25T06:53:23.094Z,10.28
2022-09-25T06:56:24.600Z,10.36
2022-09-25T06:59:25.930Z,10.42
2022-09-25T07:02:45.865Z,10.45
2022-09-25T07:05:48.111Z,10.46
2022-09-25T07:08:49.708Z,10.40
2022-09-25T07:11:52.939Z,10.46
2022-09-25T07:14:54.277Z,10.49
2022-09-25T07:17:55.633Z,10.58
2022-09-25T07:21:04.147Z,10.62
2022-09-25T07:24:05.899Z,10.71
2022-09-25T07:27:07.277Z,10.83
2022-09-25T07:30:08.987Z,10.92
2022-09-25T07:33:10.374Z,10.95
2022-09-25T07:36:12.125Z,10.95
2022-09-25T07:39:18.164Z,10.99
2022-09-25T07:42:20.001Z,11.02
2022-09-25T07:45:21.330Z,11.02
2022-09-25T07:48:23.233Z,10.96
2022-09-25T07:51:26.399Z,11.01
2022-09-25T07:54:27.773Z,11.08
2022-09-25T07:57:29.842Z,11.13
2022-09-25T08:00:31.730Z,11.16
2022-09-25T08:03:33.032Z,11.19
2022-09-25T08:06:35.021Z,11.28
2022-09-25T08:09:36.433Z,11.16
2022-09-25T08:12:40.870Z,11.24
2022-09-25T08:15:42.321Z,11.33
2022-09-25T08:18:45.431Z,11.39
2022-09-25T08:21:46.812Z,11.41
2022-09-25T08:24:49.419Z,11.43
2022-09-25T08:27:51.504Z,11.43
2022-09-25T08:30:54.147Z,11.46
2022-09-25T08:33:55.654Z,11.49
2022-09-25T08:36:57.994Z,11.56
2022-09-25T08:39:59.713Z,11.52
2022-09-25T08:43:01.054Z,11.36
2022-09-25T08:46:21.672Z,11.34
2022-09-25T08:49:26.246Z,11.52
2022-09-25T08:52:27.603Z,11.54
2022-09-25T08:55:48.289Z,11.60
2022-09-25T08:58:53.854Z,11.63
2022-09-25T09:02:10.563Z,11.52
2022-09-25T09:05:22.265Z,11.45
2022-09-25T09:08:27.847Z,11.33
2022-09-25T09:11:33.810Z,11.33
2022-09-25T09:14:36.693Z,11.28
2022-09-25T09:17:40.458Z,11.32
2022-09-25T09:20:43.677Z,11.42
2022-09-25T09:23:53.551Z,11.63
2022-09-25T09:27:07.191Z,11.82
2022-09-25T09:30:25.446Z,12.02
2022-09-25T09:33:42.452Z,11.99
2022-09-25T09:36:49.154Z,12.22
2022-09-25T09:40:09.355Z,12.40
2022-09-25T09:43:22.978Z,12.41
2022-09-25T09:46:34.459Z,12.35
2022-09-25T09:49:36.012Z,12.36
2022-09-25T09:52:38.173Z,12.23
2022-09-25T09:55:44.356Z,12.16
2022-09-25T09:58:50.502Z,12.14
2022-09-25T10:02:03.164Z,12.23
2022-09-25T10:05:06.670Z,12.25
2022-09-25T10:08:11.075Z,12.35
2022-09-25T10:11:14.669Z,12.38
2022-09-25T10:14:21.147Z,12.65
2022-09-25T10:17:23.494Z,12.67
2022-09-25T10:20:24.893Z,12.82
2022-09-25T10:23:39.385Z,12.98
2022-09-25T10:26:40.746Z,13.27
2022-09-25T10:29:42.080Z,13.19
2022-09-25T10:32:46.389Z,13.16
2022-09-25T10:35:48.779Z,13.09
2022-09-25T10:38:54.676Z,13.13
2022-09-25T10:42:05.983Z,13.14
2022-09-25T10:45:22.711Z,13.26
2022-09-25T10:48:42.683Z,13.22
2022-09-25T10:52:05.297Z,13.37
2022-09-25T10:55:14.583Z,13.22
2022-09-25T10:58:27.609Z,13.17
2022-09-25T11:01:36.029Z,13.18
2022-09-25T11:04:37.846Z,13.18
2022-09-25T11:07:39.166Z,13.23
2022-09-25T11:10:49.608Z,13.40
2022-09-25T11:13:51.071Z,13.41
2022-09-25T11:16:56.036Z,13.47
2022-09-25T11:20:29.404Z,13.57
2022-09-25T11:23:41.483Z,13.53
2022-09-25T11:26:51.359Z,13.53
2022-09-25T11:29:55.743Z,13.54
2022-09-25T11:33:03.284Z,13.41
2022-09-25T11:36:23.460Z,13.49
2022-09-25T11:39:48.698Z,13.37
2022-09-25T11:42:58.588Z,13.17
2022-09-25T11:46:02.592Z,13.15
2022-09-25T11:49:15.615Z,13.20
2022-09-25T11:52:20.266Z,13.02
2022-09-25T11:55:34.621Z,12.93
2022-09-25T11:58:55.613Z,12.83
2022-09-25T12:01:58.295Z,12.82
2022-09-25T12:05:04.906Z,12.74
2022-09-25T12:08:26.899Z,12.78
2022-09-25T12:11:46.690Z,12.71
2022-09-25T12:14:48.222Z,12.76
2022-09-25T12:17:53.199Z,12.70
2022-09-25T12:20:54.450Z,12.59
2022-09-25T12:24:19.098Z,12.50
2022-09-25T12:27:23.417Z,12.46
2022-09-25T12:30:30.087Z,12.35
2022-09-25T12:33:40.536Z,12.30
2022-09-25T12:36:43.210Z,12.36
2022-09-25T12:39:45.033Z,12.39
2022-09-25T12:42:55.714Z,12.28
2022-09-25T12:45:57.071Z,12.41
2022-09-25T12:48:58.407Z,12.48
2022-09-25T12:52:01.732Z,12.59
2022-09-25T12:55:13.509Z,12.60
2022-09-25T12:58:18.462Z,12.71
2022-09-25T13:01:46.667Z,12.82
2022-09-25T13:04:57.012Z,12.89
2022-09-25T13:07:59.874Z,12.95
2022-09-25T13:11:08.019Z,12.74
2022-09-25T13:14:11.862Z,12.83
2022-09-25T13:17:13.450Z,12.87
2022-09-25T13:20:27.081Z,12.82
2022-09-25T13:23:33.673Z,12.89
2022-09-25T13:26:42.730Z,12.88
2022-09-25T13:29:44.695Z,13.00
2022-09-25T13:32:50.357Z,13.13
2022-09-25T13:36:02.421Z,13.27
2022-09-25T13:39:33.082Z,13.44
2022-09-25T13:42:39.072Z,13.44
2022-09-25T13:45:41.340Z,13.54
2022-09-25T13:48:42.790Z,13.57
2022-09-25T13:51:44.537Z,13.42
2022-09-25T13:54:45.844Z,13.49
2022-09-25T13:57:57.312Z,13.58
2022-09-25T14:00:59.432Z,13.56
2022-09-25T14:04:00.917Z,13.56
2022-09-25T14:07:06.548Z,13.60
2022-09-25T14:10:08.223Z,13.62
2022-09-25T14:13:13.042Z,13.58
2022-09-25T14:16:43.976Z,13.69
2022-09-25T14:19:46.244Z,13.67
2022-09-25T14:22:53.191Z,13.63
2022-09-25T14:26:01.293Z,13.69
2022-09-25T14:29:02.629Z,13.85
2022-09-25T14:32:07.084Z,13.61
2022-09-25T14:35:11.407Z,13.76
2022-09-25T14:38:12.754Z,13.64
2022-09-25T14:41:39.510Z,13.60
2022-09-25T14:44:40.792Z,13.63
2022-09-25T14:47:43.538Z,13.53
2022-09-25T14:50:45.830Z,13.57
2022-09-25T14:54:05.465Z,13.68
2022-09-25T14:57:07.738Z,13.68
2022-09-25T15:00:09.490Z,13.72
2022-09-25T15:03:11.711Z,13.63
2022-09-25T15:06:16.287Z,13.70
2022-09-25T15:09:25.079Z,13.67
2022-09-25T15:12:27.348Z,13.48
2022-09-25T15:15:28.711Z,13.41
2022-09-25T15:18:30.038Z,13.33
2022-09-25T15:21:32.102Z,13.34
2022-09-25T15:24:34.252Z,13.27
2022-09-25T15:27:36.995Z,13.15
2022-09-25T15:30:41.761Z,12.36
2022-09-25T15:33:43.171Z,12.08
2022-09-25T15:36:44.749Z,11.58
2022-09-25T15:39:46.075Z,11.24
2022-09-25T15:42:47.785Z,11.14
2022-09-25T15:46:10.272Z,11.02
2022-09-25T15:49:31.027Z,11.04
2022-09-25T15:52:33.877Z,10.96
2022-09-25T15:55:35.283Z,10.90
2022-09-25T15:58:43.074Z,10.95
2022-09-25T16:02:03.407Z,10.91
2022-09-25T16:05:05.780Z,10.89
2022-09-25T16:08:16.438Z,10.88
2022-09-25T16:11:17.935Z,10.87
2022-09-25T16:14:29.124Z,10.88
2022-09-25T16:17:35.599Z,10.92
2022-09-25T16:20:37.250Z,10.93
2022-09-25T16:23:40.037Z,10.97
2022-09-25T16:26:45.299Z,10.90
2022-09-25T16:29:46.627Z,10.86
2022-09-25T16:33:04.969Z,10.92
2022-09-25T16:36:17.518Z,10.92
2022-09-25T16:39:26.733Z,10.94
2022-09-25T16:42:31.564Z,10.90
2022-09-25T16:45:34.208Z,10.88
2022-09-25T16:48:37.341Z,10.97
2022-09-25T16:51:45.445Z,10.99
2022-09-25T16:54:48.247Z,11.00
2022-09-25T16:57:50.499Z,11.00
2022-09-25T17:00:51.911Z,10.99
2022-09-25T17:03:55.439Z,10.88
2022-09-25T17:06:58.061Z,10.88
2022-09-25T17:10:01.006Z,10.90
2022-09-25T17:13:02.435Z,10.87
2022-09-25T17:16:04.034Z,10.91
2022-09-25T17:19:08.264Z,10.86
2022-09-25T17:22:09.792Z,10.83
2022-09-25T17:25:19.170Z,10.82
2022-09-25T17:28:20.549Z,10.86
2022-09-25T17:31:22.198Z,10.86
2022-09-25T17:34:28.583Z,10.86
2022-09-25T17:37:30.074Z,10.78
2022-09-25T17:40:33.210Z,10.80
2022-09-25T17:43:34.707Z,10.80
2022-09-25T17:46:36.307Z,10.80
2022-09-25T17:49:37.888Z,10.82
2022-09-25T17:52:39.244Z,10.78
2022-09-25T17:55:40.632Z,10.84
2022-09-25T17:58:45.423Z,10.87
2022-09-25T18:01:46.967Z,10.87
2022-09-25T18:04:48.450Z,10.84
2022-09-25T18:07:49.858Z,10.86
2022-09-25T18:10:54.798Z,10.84
2022-09-25T18:14:00.933Z,10.78
2022-09-25T18:17:02.362Z,10.76
2022-09-25T18:20:22.658Z,10.79
2022-09-25T18:23:24.017Z,10.85
2022-09-25T18:26:30.464Z,10.83
2022-09-25T18:29:32.601Z,10.81
2022-09-25T18:32:34.064Z,10.80
2022-09-25T18:35:35.441Z,10.81
2022-09-25T18:38:36.827Z,10.84
2022-09-25T18:41:38.499Z,10.80
2022-09-25T18:44:42.578Z,10.78
2022-09-25T18:47:45.668Z,10.76
2022-09-25T18:50:47.404Z,10.76
2022-09-25T18:53:51.947Z,10.80
2022-09-25T18:56:54.667Z,10.81
2022-09-25T18:59:56.041Z,10.80
2022-09-25T19:02:57.538Z,10.79
2022-09-25T19:05:59.854Z,10.78
2022-09-25T19:09:01.331Z,10.81
2022-09-25T19:12:03.724Z,10.70
2022-09-25T19:15:05.561Z,10.64
2022-09-25T19:18:06.932Z,10.68
2022-09-25T19:21:08.357Z,10.54
2022-09-25T19:24:09.690Z,10.45
2022-09-25T19:27:11.367Z,10.41
2022-09-25T19:30:12.830Z,10.41
2022-09-25T19:33:14.205Z,10.34
2022-09-25T19:36:21.841Z,10.24
2022-09-25T19:39:23.322Z,10.22
2022-09-25T19:42:24.700Z,10.18
2022-09-25T19:45:26.063Z,10.19
2022-09-25T19:48:27.402Z,10.22
2022-09-25T19:51:28.747Z,10.17
2022-09-25T19:54:30.080Z,10.11
2022-09-25T19:57:31.473Z,10.18
2022-09-25T20:00:32.879Z,10.10
2022-09-25T20:03:34.227Z,10.10
2022-09-25T20:06:36.520Z,10.12
2022-09-25T20:09:40.010Z,10.17
2022-09-25T20:12:41.620Z,10.09
2022-09-25T20:15:45.711Z,10.04
2022-09-25T20:18:47.605Z,10.02
2022-09-25T20:21:48.974Z,10.09
2022-09-25T20:24:51.176Z,9.99
2022-09-25T20:27:52.598Z,10.00
2022-09-25T20:30:54.091Z,10.00
2022-09-25T20:33:55.495Z,10.01
2022-09-25T20:36:56.943Z,10.03
2022-09-25T20:39:58.747Z,10.06
2022-09-25T20:43:00.228Z,9.99
2022-09-25T20:46:04.029Z,10.00
2022-09-25T20:49:05.466Z,9.96
2022-09-25T20:52:06.814Z,9.97
2022-09-25T20:55:08.425Z,10.02
2022-09-25T20:58:10.292Z,10.10
2022-09-25T21:01:12.664Z,10.09
2022-09-25T21:04:17.993Z,10.08
2022-09-25T21:07:19.503Z,10.12
2022-09-25T21:10:20.884Z,10.10
2022-09-25T21:13:22.274Z,10.09
2022-09-25T21:16:23.858Z,10.02
2022-09-25T21:19:25.320Z,10.04
2022-09-25T21:22:26.818Z,10.04
2022-09-25T21:25:29.001Z,10.03
2022-09-25T21:28:31.338Z,10.05
2022-09-25T21:31:35.271Z,10.04
2022-09-25T21:34:36.653Z,10.02
2022-09-25T21:37:38.275Z,10.01
2022-09-25T21:40:39.700Z,10.00
2022-09-25T21:43:41.096Z,9.97
2022-09-25T21:46:42.738Z,9.93
2022-09-25T21:49:44.168Z,9.87
2022-09-25T21:52:45.636Z,9.81
2022-09-25T21:55:47.166Z,9.72
2022-09-25T21:58:48.759Z,9.73
2022-09-25T22:01:50.242Z,9.79
2022-09-25T22:04:51.650Z,9.79
2022-09-25T22:07:53.387Z,9.79
2022-09-25T22:10:55.625Z,9.75
2022-09-25T22:13:57.683Z,9.74
2022-09-25T22:16:59.176Z,9.75
2022-09-25T22:20:05.043Z,9.68
2022-09-25T22:23:06.976Z,9.61
2022-09-25T22:26:08.379Z,9.64
2022-09-25T22:29:09.759Z,9.64
2022-09-25T22:32:11.143Z,9.56
2022-09-25T22:35:12.554Z,9.54
2022-09-25T22:38:13.939Z,9.58
2022-09-25T22:41:15.278Z,9.65
2022-09-25T22:44:16.840Z,9.66
2022-09-25T22:47:18.184Z,9.69
2022-09-25T22:50:19.522Z,9.68
2022-09-25T22:53:21.662Z,9.71
2022-09-25T22:56:23.080Z,9.69
2022-09-25T22:59:24.456Z,9.69
2022-09-25T23:02:25.806Z,9.64
2022-09-25T23:05:27.265Z,9.54
2022-09-25T23:08:28.689Z,9.56
2022-09-25T23:11:30.143Z,9.59
2022-09-25T23:14:31.597Z,9.60
2022-09-25T23:17:32.964Z,9.63
2022-09-25T23:20:34.379Z,9.61
2022-09-25T23:23:35.798Z,9.60
2022-09-25T23:26:37.156Z,9.64
2022-09-25T23:29:38.490Z,9.58
2022-09-25T23:32:39.844Z,9.55
2022-09-25T23:35:41.182Z,9.58
2022-09-25T23:38:42.584Z,9.59
2022-09-25T23:41:43.950Z,9.56
2022-09-25T23:44:45.409Z,9.56
2022-09-25T23:47:46.744Z,9.59
2022-09-25T23:50:51.197Z,9.61
2022-09-25T23:53:57.153Z,9.56
2022-09-25T23:56:59.351Z,9.52
